Time;durP1;ratioP1;P1;durP2;ratioP2;P2;SDS_P1;SDS_P2;PMS_P1;PMS_P2;Temp;Humidity;BMP_temperature;BMP_pressure;BME280_temperature;BME280_humidity;BME280_pressure;Samples;Min_cycle;Max_cycle;Signal;HPM_P1;HPM_P2
2022/04/30 00:01:19;;;;;;;;;;;;;;;7.06;100.00;102953.31;2613330;36;20462;-48
2022/04/30 00:03:47;;;;;;;;;;;;;;;6.91;100.00;102950.31;2613518;36;20068;-53
2022/04/30 00:06:15;;;;;;;;;;;;;;;6.95;100.00;102946.59;2612585;36;20036;-53
2022/04/30 00:08:43;;;;;;;;;;;;;;;6.98;100.00;102945.59;2614132;36;19958;-48
2022/04/30 00:11:11;;;;;;;;;;;;;;;6.92;100.00;102946.72;2612665;36;19997;-48
2022/04/30 00:13:42;;;;;;;;;;;;;;;7.03;100.00;102950.75;2614162;31;19969;-54
2022/04/30 00:16:10;;;;;;;;;;;;;;;6.97;100.00;102938.50;2612689;31;20074;-49
2022/04/30 00:18:38;;;;;;;;;;;;;;;6.98;100.00;102941.09;2612789;31;20034;-48
2022/04/30 00:21:06;;;;;;;;;;;;;;;7.02;100.00;102941.84;2613273;31;20557;-49
2022/04/30 00:23:34;;;;;;;;;;;;;;;7.11;100.00;102940.59;2612411;36;20485;-49
2022/04/30 00:26:03;;;;;;;;;;;;;;;6.89;100.00;102946.84;2612685;31;19954;-53
2022/04/30 00:28:31;;;;;;;;;;;;;;;6.82;100.00;102939.97;2613593;31;20529;-49
2022/04/30 00:31:02;;;;;;;;;;;;;;;6.78;100.00;102941.03;2613547;36;19972;-49
2022/04/30 00:33:30;;;;;;;;;;;;;;;6.87;100.00;102937.97;2613364;36;19958;-50
2022/04/30 00:35:59;;;;;;;;;;;;;;;6.92;100.00;102940.47;2613756;31;20336;-53
2022/04/30 00:38:27;;;;;;;;;;;;;;;6.91;100.00;102936.06;2612968;36;20447;-48
2022/04/30 00:40:55;;;;;;;;;;;;;;;6.89;100.00;102935.22;2613245;36;20038;-52
2022/04/30 00:43:24;;;;;;;;;;;;;;;6.83;100.00;102933.66;2613606;36;20046;-51
2022/04/30 00:45:52;;;;;;;;;;;;;;;6.80;100.00;102933.78;2613524;36;19947;-55
2022/04/30 00:48:23;;;;;;;;;;;;;;;6.89;100.00;102929.88;2613325;36;19950;-49
2022/04/30 00:50:53;;;;;;;;;;;;;;;6.77;100.00;102932.13;2613623;36;20053;-48
2022/04/30 00:53:22;;;;;;;;;;;;;;;6.75;100.00;102927.75;2613189;36;20000;-52
2022/04/30 00:55:51;;;;;;;;;;;;;;;6.69;100.00;102928.00;2614030;36;20481;-50
2022/04/30 00:58:22;;;;;;;;;;;;;;;6.72;100.00;102927.88;2613890;36;20479;-50
2022/04/30 01:00:51;;;;;;;;;;;;;;;6.62;100.00;102920.19;2613352;31;20093;-49
2022/04/30 01:03:19;;;;;;;;;;;;;;;6.64;100.00;102923.69;2613468;36;20046;-48
2022/04/30 01:05:51;;;;;;;;;;;;;;;6.54;100.00;102918.78;2612848;36;19958;-49
2022/04/30 01:08:19;;;;;;;;;;;;;;;6.50;100.00;102918.00;2612234;36;20554;-48
2022/04/30 01:10:47;;;;;;;;;;;;;;;6.57;100.00;102922.19;2613497;36;20053;-53
2022/04/30 01:13:16;;;;;;;;;;;;;;;6.62;100.00;102917.50;2613105;36;20042;-48
2022/04/30 01:15:44;;;;;;;;;;;;;;;6.47;100.00;102918.13;2613416;36;19953;-49
2022/04/30 01:18:13;;;;;;;;;;;;;;;6.46;100.00;102916.38;2613399;31;20029;-49
2022/04/30 01:20:43;;;;;;;;;;;;;;;6.49;100.00;102916.25;2613371;36;19951;-48
2022/04/30 01:23:14;;;;;;;;;;;;;;;6.47;100.00;102913.63;2612798;36;20030;-49
2022/04/30 01:25:44;;;;;;;;;;;;;;;6.52;100.00;102918.81;2613511;36;20034;-48
2022/04/30 01:28:13;;;;;;;;;;;;;;;6.44;100.00;102912.88;2613122;36;19946;-48
2022/04/30 01:30:41;;;;;;;;;;;;;;;6.48;100.00;102918.06;2613492;36;20499;-51
2022/04/30 01:38:32;;;;;;;;;;;;;;;6.25;100.00;102902.88;2612769;36;19973;-48
2022/04/30 01:41:01;;;;;;;;;;;;;;;6.41;100.00;102902.31;2613602;36;20037;-50
2022/04/30 01:43:29;;;;;;;;;;;;;;;6.39;100.00;102904.16;2613544;36;20483;-51
2022/04/30 01:45:57;;;;;;;;;;;;;;;6.31;100.00;102897.28;2613163;36;19946;-48
2022/04/30 01:48:25;;;;;;;;;;;;;;;6.21;100.00;102892.34;2613379;36;19950;-52
2022/04/30 01:50:54;;;;;;;;;;;;;;;6.29;100.00;102890.28;2613078;36;19969;-48
2022/04/30 01:53:22;;;;;;;;;;;;;;;6.26;100.00;102893.06;2613463;36;20309;-53
2022/04/30 01:55:53;;;;;;;;;;;;;;;6.06;100.00;102888.47;2613001;36;19954;-50
2022/04/30 01:58:21;;;;;;;;;;;;;;;5.90;100.00;102885.44;2613210;36;19946;-47
2022/04/30 02:00:49;;;;;;;;;;;;;;;5.97;100.00;102887.84;2613150;36;20005;-51
2022/04/30 02:03:17;;;;;;;;;;;;;;;6.03;100.00;102886.75;2613226;36;19958;-55
2022/04/30 02:05:45;;;;;;;;;;;;;;;5.95;100.00;102883.50;2613295;36;20037;-52
2022/04/30 02:08:15;;;;;;;;;;;;;;;5.91;100.00;102882.72;2612941;36;20042;-48
2022/04/30 02:10:43;;;;;;;;;;;;;;;5.89;100.00;102871.22;2613235;36;19947;-51
2022/04/30 02:13:14;;;;;;;;;;;;;;;5.79;100.00;102877.81;2613062;36;20389;-48
2022/04/30 02:15:43;;;;;;;;;;;;;;;5.74;100.00;102877.09;2613355;36;20077;-49
2022/04/30 02:18:13;;;;;;;;;;;;;;;5.70;100.00;102878.16;2613251;36;20097;-50
2022/04/30 02:20:43;;;;;;;;;;;;;;;6.02;100.00;102876.13;2613096;36;19980;-50
2022/04/30 02:23:13;;;;;;;;;;;;;;;5.83;100.00;102873.22;2612968;36;19978;-49
2022/04/30 02:25:41;;;;;;;;;;;;;;;5.82;100.00;102872.38;2613429;36;20074;-52
2022/04/30 02:28:10;;;;;;;;;;;;;;;5.74;100.00;102874.44;2606432;36;19962;-54
2022/04/30 02:30:42;;;;;;;;;;;;;;;5.65;100.00;102869.41;2612960;36;19954;-53
2022/04/30 02:33:11;;;;;;;;;;;;;;;5.56;100.00;102866.13;2613281;36;19976;-50
2022/04/30 02:35:41;;;;;;;;;;;;;;;5.49;100.00;102864.63;2613241;36;19951;-51
2022/04/30 02:38:11;;;;;;;;;;;;;;;5.42;100.00;102865.78;2612713;36;19961;-53
2022/04/30 02:40:39;;;;;;;;;;;;;;;5.34;100.00;102860.66;2613143;36;19950;-51
2022/04/30 02:43:08;;;;;;;;;;;;;;;5.32;100.00;102857.19;2613385;36;19958;-53
2022/04/30 02:45:38;;;;;;;;;;;;;;;5.23;100.00;102850.38;2613317;36;20059;-51
2022/04/30 02:48:09;;;;;;;;;;;;;;;5.25;100.00;102852.97;2613475;36;20016;-47
2022/04/30 02:50:38;;;;;;;;;;;;;;;5.13;100.00;102856.94;2613462;36;19953;-51
2022/04/30 02:53:06;;;;;;;;;;;;;;;5.13;100.00;102850.75;2613042;31;20461;-47
2022/04/30 02:55:35;;;;;;;;;;;;;;;5.05;100.00;102849.19;2613263;36;20406;-48
2022/04/30 03:00:44;;;;;;;;;;;;;;;4.91;100.00;102844.31;2613123;31;19950;-51
2022/04/30 03:03:16;;;;;;;;;;;;;;;4.89;100.00;102838.16;2613448;36;19972;-54
2022/04/30 03:05:50;;;;;;;;;;;;;;;4.91;100.00;102835.44;2613834;36;20026;-51
2022/04/30 03:08:19;;;;;;;;;;;;;;;4.86;100.00;102835.59;2613006;31;19971;-52
2022/04/30 03:10:48;;;;;;;;;;;;;;;4.86;100.00;102838.25;2612991;36;19946;-52
2022/04/30 03:13:17;;;;;;;;;;;;;;;4.80;100.00;102841.13;2613060;36;20730;-47
2022/04/30 03:15:46;;;;;;;;;;;;;;;4.77;100.00;102841.25;2613208;36;20342;-49
2022/04/30 03:23:39;;;;;;;;;;;;;;;4.67;100.00;102837.97;2612863;31;19951;-49
2022/04/30 03:26:08;;;;;;;;;;;;;;;4.64;100.00;102829.19;2612701;31;20083;-48
2022/04/30 03:28:37;;;;;;;;;;;;;;;4.62;100.00;102834.56;2613082;36;20038;-49
2022/04/30 03:31:05;;;;;;;;;;;;;;;4.63;100.00;102831.00;2612909;36;19950;-48
2022/04/30 03:33:36;;;;;;;;;;;;;;;4.62;100.00;102831.03;2612885;36;19977;-49
2022/04/30 03:36:04;;;;;;;;;;;;;;;4.59;100.00;102831.13;2612995;36;20037;-55
2022/04/30 03:38:32;;;;;;;;;;;;;;;4.55;100.00;102823.25;2613640;36;20333;-49
2022/04/30 03:41:00;;;;;;;;;;;;;;;4.55;100.00;102823.25;2613649;36;19978;-48
2022/04/30 03:43:28;;;;;;;;;;;;;;;4.53;100.00;102822.44;2613925;36;19980;-52
2022/04/30 03:45:56;;;;;;;;;;;;;;;4.54;100.00;102818.81;2613657;31;20038;-50
2022/04/30 03:48:24;;;;;;;;;;;;;;;4.52;100.00;102820.69;2613932;31;20388;-48
2022/04/30 03:50:56;;;;;;;;;;;;;;;4.51;100.00;102816.25;2613674;36;20085;-51
2022/04/30 03:53:24;;;;;;;;;;;;;;;4.46;100.00;102819.97;2613474;36;20362;-49
2022/04/30 03:55:53;;;;;;;;;;;;;;;4.44;100.00;102814.69;2613293;36;19946;-51
2022/04/30 03:58:22;;;;;;;;;;;;;;;4.47;100.00;102817.25;2612461;36;19950;-50
2022/04/30 04:00:51;;;;;;;;;;;;;;;4.43;100.00;102812.97;2612894;36;19956;-49
2022/04/30 04:03:19;;;;;;;;;;;;;;;4.42;100.00;102811.22;2612911;36;20057;-48
2022/04/30 04:05:48;;;;;;;;;;;;;;;4.44;100.00;102813.84;2612541;31;20443;-50
2022/04/30 04:08:20;;;;;;;;;;;;;;;4.42;100.00;102805.88;2613352;31;19951;-53
2022/04/30 04:10:48;;;;;;;;;;;;;;;4.41;100.00;102814.78;2612974;36;19950;-48
2022/04/30 04:18:37;;;;;;;;;;;;;;;4.45;100.00;102811.13;2613572;36;19954;-51
2022/04/30 04:21:07;;;;;;;;;;;;;;;4.45;100.00;102818.25;2612513;36;19947;-52
2022/04/30 04:26:18;;;;;;;;;;;;;;;4.47;100.00;102819.06;2613050;36;19981;-49
2022/04/30 04:28:46;;;;;;;;;;;;;;;4.53;100.00;102818.88;2612374;36;19950;-49
2022/04/30 04:31:17;;;;;;;;;;;;;;;4.51;100.00;102821.59;2613126;36;20045;-52
2022/04/30 04:33:45;;;;;;;;;;;;;;;4.49;100.00;102825.22;2612328;36;19950;-55
2022/04/30 04:36:13;;;;;;;;;;;;;;;4.58;100.00;102822.28;2613043;36;19973;-50
2022/04/30 04:38:44;;;;;;;;;;;;;;;4.64;100.00;102815.84;2613351;36;20523;-50
2022/04/30 04:41:12;;;;;;;;;;;;;;;4.67;100.00;102810.44;2612445;36;19957;-49
2022/04/30 04:43:40;;;;;;;;;;;;;;;4.71;100.00;102815.63;2613094;31;19951;-53
2022/04/30 04:46:09;;;;;;;;;;;;;;;4.79;100.00;102815.38;2612057;36;19958;-51
2022/04/30 04:48:37;;;;;;;;;;;;;;;4.83;100.00;102817.03;2613051;31;20404;-49
2022/04/30 04:51:05;;;;;;;;;;;;;;;4.88;100.00;102811.53;2613029;36;19947;-49
2022/04/30 04:53:33;;;;;;;;;;;;;;;4.99;100.00;102812.06;2613672;36;20050;-58
2022/04/30 04:56:06;;;;;;;;;;;;;;;5.04;100.00;102815.41;2612804;36;20086;-49
2022/04/30 04:58:34;;;;;;;;;;;;;;;5.14;100.00;102810.66;2613345;36;19969;-50
2022/04/30 05:01:02;;;;;;;;;;;;;;;5.26;100.00;102820.03;2613095;36;19958;-49
2022/04/30 05:03:30;;;;;;;;;;;;;;;5.37;100.00;102816.97;2613269;36;19947;-52
2022/04/30 05:05:58;;;;;;;;;;;;;;;5.35;100.00;102818.84;2612457;36;20078;-50
2022/04/30 05:08:26;;;;;;;;;;;;;;;5.56;100.00;102818.06;2613317;31;20476;-56
2022/04/30 05:10:54;;;;;;;;;;;;;;;5.58;100.00;102824.22;2612948;36;20077;-49
2022/04/30 05:13:24;;;;;;;;;;;;;;;5.71;100.00;102831.78;2612993;36;19962;-50
2022/04/30 05:15:52;;;;;;;;;;;;;;;5.75;100.00;102828.09;2612686;36;20456;-50
2022/04/30 05:18:21;;;;;;;;;;;;;;;5.79;100.00;102830.59;2612119;36;20065;-55
2022/04/30 05:20:49;;;;;;;;;;;;;;;5.87;100.00;102827.63;2612751;36;19954;-50
2022/04/30 05:23:17;;;;;;;;;;;;;;;6.14;100.00;102830.25;2612647;36;19973;-50
2022/04/30 05:25:45;;;;;;;;;;;;;;;6.23;100.00;102824.53;2612165;36;20081;-48
2022/04/30 05:28:13;;;;;;;;;;;;;;;6.37;100.00;102832.00;2612758;36;19975;-50
2022/04/30 05:30:44;;;;;;;;;;;;;;;6.64;100.00;102830.03;2610924;36;20033;-50
2022/04/30 05:33:12;;;;;;;;;;;;;;;6.84;100.00;102820.31;2607169;36;20061;-49
2022/04/30 05:35:40;;;;;;;;;;;;;;;6.87;100.00;102822.88;2612772;36;20030;-51
2022/04/30 05:38:08;;;;;;;;;;;;;;;6.89;100.00;102831.72;2612311;36;20077;-48
2022/04/30 05:40:36;;;;;;;;;;;;;;;6.89;100.00;102823.69;2613495;31;20064;-52
2022/04/30 05:43:05;;;;;;;;;;;;;;;7.11;100.00;102828.13;2612306;36;19954;-49
2022/04/30 05:45:33;;;;;;;;;;;;;;;7.17;100.00;102828.75;2612567;36;20793;-48
2022/04/30 05:48:04;;;;;;;;;;;;;;;7.32;100.00;102843.28;2613198;36;20743;-55
2022/04/30 05:50:33;;;;;;;;;;;;;;;7.43;100.00;102836.59;2612368;36;20502;-58
2022/04/30 05:53:01;;;;;;;;;;;;;;;7.26;100.00;102830.16;2611921;36;20037;-48
2022/04/30 05:55:30;;;;;;;;;;;;;;;7.54;100.00;102831.66;2613175;36;19946;-52
2022/04/30 05:57:58;;;;;;;;;;;;;;;7.55;100.00;102825.31;2612859;36;20078;-50
2022/04/30 06:00:26;;;;;;;;;;;;;;;7.73;100.00;102837.06;2612868;36;19958;-52
2022/04/30 06:02:55;;;;;;;;;;;;;;;7.87;100.00;102825.69;2612190;36;20538;-53
2022/04/30 06:05:25;;;;;;;;;;;;;;;7.98;100.00;102819.84;2613491;31;19957;-58
2022/04/30 06:07:54;;;;;;;;;;;;;;;7.91;100.00;102821.09;2612384;36;20000;-49
2022/04/30 06:10:22;;;;;;;;;;;;;;;8.01;100.00;102823.25;2612590;36;19946;-49
2022/04/30 06:12:50;;;;;;;;;;;;;;;7.75;100.00;102826.28;2613425;36;20045;-50
2022/04/30 06:15:18;;;;;;;;;;;;;;;8.11;100.00;102821.00;2612996;36;20420;-56
2022/04/30 06:17:46;;;;;;;;;;;;;;;8.13;100.00;102818.28;2612652;36;19978;-49
2022/04/30 06:20:14;;;;;;;;;;;;;;;8.00;100.00;102824.19;2613006;36;20443;-51
2022/04/30 06:22:45;;;;;;;;;;;;;;;8.10;100.00;102823.75;2612120;36;20523;-48
2022/04/30 06:25:13;;;;;;;;;;;;;;;8.22;100.00;102823.19;2614012;31;20066;-52
2022/04/30 06:27:41;;;;;;;;;;;;;;;8.50;100.00;102814.72;2613324;31;19951;-49
2022/04/30 06:30:11;;;;;;;;;;;;;;;8.68;100.00;102820.13;2613071;31;20041;-58
2022/04/30 06:32:39;;;;;;;;;;;;;;;8.62;100.00;102815.94;2612276;36;20637;-50
2022/04/30 06:35:08;;;;;;;;;;;;;;;8.77;100.00;102820.56;2613164;36;19996;-58
2022/04/30 06:37:35;;;;;;;;;;;;;;;8.70;100.00;102818.25;2612035;36;20077;-52
2022/04/30 06:40:07;;;;;;;;;;;;;;;8.46;100.00;102821.19;2612363;36;20093;-50
2022/04/30 06:42:42;;;;;;;;;;;;;;;8.80;100.00;102815.97;2613398;31;20521;-51
2022/04/30 06:45:12;;;;;;;;;;;;;;;8.72;100.00;102822.59;2612863;31;20514;-49
2022/04/30 06:47:40;;;;;;;;;;;;;;;8.90;100.00;102811.88;2612256;36;20305;-54
2022/04/30 06:50:10;;;;;;;;;;;;;;;8.85;100.00;102822.88;2612292;31;20030;-58
2022/04/30 06:57:07;;;;;;;;;;;;;;;8.83;100.00;102823.88;2611878;31;20030;-48
2022/04/30 06:58:09;;;;;;;;;;;;;;;8.69;100.00;102812.00;2612116;31;20053;-54
2022/04/30 07:03:19;;;;;;;;;;;;;;;9.20;100.00;102811.25;2611034;36;19957;-49
2022/04/30 07:05:47;;;;;;;;;;;;;;;9.22;100.00;102809.38;2612012;31;20072;-50
2022/04/30 07:08:15;;;;;;;;;;;;;;;9.49;100.00;102811.56;2609748;36;20428;-56
2022/04/30 07:10:45;;;;;;;;;;;;;;;9.81;100.00;102813.41;2610324;36;20060;-49
2022/04/30 07:13:13;;;;;;;;;;;;;;;9.94;100.00;102810.91;2611999;36;20037;-49
2022/04/30 07:15:41;;;;;;;;;;;;;;;10.09;100.00;102806.50;2612845;36;19947;-48
2022/04/30 07:18:09;;;;;;;;;;;;;;;10.56;100.00;102806.66;2611750;36;20565;-49
2022/04/30 07:20:39;;;;;;;;;;;;;;;10.63;100.00;102810.72;2611152;36;19950;-49
2022/04/30 07:23:07;;;;;;;;;;;;;;;10.63;100.00;102810.72;2612546;36;19950;-53
2022/04/30 07:25:35;;;;;;;;;;;;;;;10.23;100.00;102807.56;2609653;36;20058;-51
2022/04/30 07:28:06;;;;;;;;;;;;;;;10.50;100.00;102811.41;2604370;31;20107;-50
2022/04/30 07:30:34;;;;;;;;;;;;;;;10.51;100.00;102804.19;2612065;36;20336;-50
2022/04/30 07:33:02;;;;;;;;;;;;;;;10.63;100.00;102811.59;2610250;36;19985;-53
2022/04/30 07:35:30;;;;;;;;;;;;;;;10.89;100.00;102803.81;2611724;36;20665;-53
2022/04/30 07:37:58;;;;;;;;;;;;;;;10.82;100.00;102800.63;2611953;36;20704;-50
2022/04/30 07:40:26;;;;;;;;;;;;;;;11.18;100.00;102807.47;2612364;36;20034;-55
2022/04/30 07:42:54;;;;;;;;;;;;;;;11.27;100.00;102797.09;2612157;36;19962;-58
2022/04/30 07:45:27;;;;;;;;;;;;;;;11.04;100.00;102802.91;2612579;36;19950;-58
2022/04/30 07:47:56;;;;;;;;;;;;;;;11.80;100.00;102806.41;2611983;36;19954;-54
2022/04/30 07:50:25;;;;;;;;;;;;;;;11.43;100.00;102805.97;2611958;36;20030;-50
2022/04/30 07:52:53;;;;;;;;;;;;;;;11.39;100.00;102804.44;2611896;36;19950;-51
2022/04/30 07:55:22;;;;;;;;;;;;;;;12.00;100.00;102801.59;2613162;31;20576;-49
2022/04/30 07:57:50;;;;;;;;;;;;;;;12.23;100.00;102805.53;2612808;36;20004;-50
2022/04/30 08:00:19;;;;;;;;;;;;;;;12.02;100.00;102802.38;2611749;36;19969;-54
2022/04/30 08:02:50;;;;;;;;;;;;;;;12.21;100.00;102800.22;2611487;36;20001;-51
2022/04/30 08:05:18;;;;;;;;;;;;;;;11.97;100.00;102799.09;2612324;36;19958;-55
2022/04/30 08:07:46;;;;;;;;;;;;;;;11.32;100.00;102803.94;2611756;36;19973;-49
2022/04/30 08:10:14;;;;;;;;;;;;;;;11.20;100.00;102804.66;2612611;36;19973;-49
2022/04/30 08:12:42;;;;;;;;;;;;;;;11.32;100.00;102797.66;2612585;36;19955;-55
2022/04/30 08:15:10;;;;;;;;;;;;;;;11.33;100.00;102791.31;2612425;36;20034;-54
2022/04/30 08:17:38;;;;;;;;;;;;;;;11.58;100.00;102799.63;2612013;36;20054;-50
2022/04/30 08:20:10;;;;;;;;;;;;;;;11.22;100.00;102792.84;2611761;36;19981;-48
2022/04/30 08:22:38;;;;;;;;;;;;;;;10.92;100.00;102794.69;2612813;36;19968;-50
2022/04/30 08:25:06;;;;;;;;;;;;;;;10.87;100.00;102795.81;2614518;36;19966;-52
2022/04/30 08:27:34;;;;;;;;;;;;;;;11.25;100.00;102797.19;2613147;36;19955;-50
2022/04/30 08:30:02;;;;;;;;;;;;;;;11.29;100.00;102800.56;2613370;36;20416;-51
2022/04/30 08:32:30;;;;;;;;;;;;;;;11.62;100.00;102791.38;2613046;36;20002;-51
2022/04/30 08:35:02;;;;;;;;;;;;;;;12.11;100.00;102799.06;2613805;36;19950;-53
2022/04/30 08:37:36;;;;;;;;;;;;;;;12.19;100.00;102790.47;2613144;36;20078;-51
2022/04/30 08:40:04;;;;;;;;;;;;;;;12.38;100.00;102782.94;2614276;31;20423;-50
2022/04/30 08:42:32;;;;;;;;;;;;;;;12.65;100.00;102786.59;2612635;36;19954;-56
2022/04/30 08:45:01;;;;;;;;;;;;;;;12.25;100.00;102788.25;2614026;36;21030;-54
2022/04/30 08:47:31;;;;;;;;;;;;;;;12.35;100.00;102784.94;2611877;36;20033;-54
2022/04/30 08:49:59;;;;;;;;;;;;;;;12.52;100.00;102783.84;2613029;36;20017;-52
2022/04/30 08:52:27;;;;;;;;;;;;;;;12.83;100.00;102777.25;2612003;36;19954;-55
2022/04/30 08:54:58;;;;;;;;;;;;;;;12.56;100.00;102783.56;2613820;31;19958;-50
2022/04/30 08:57:27;;;;;;;;;;;;;;;12.28;100.00;102787.22;2613527;36;20077;-50
2022/04/30 08:59:55;;;;;;;;;;;;;;;12.46;100.00;102785.13;2612605;36;21152;-53
2022/04/30 09:02:23;;;;;;;;;;;;;;;12.35;100.00;102787.66;2611500;36;19989;-51
2022/04/30 09:04:51;;;;;;;;;;;;;;;11.86;100.00;102791.66;2610928;36;19973;-51
2022/04/30 09:07:20;;;;;;;;;;;;;;;11.33;100.00;102796.72;2612584;31;21134;-54
2022/04/30 09:09:54;;;;;;;;;;;;;;;11.04;100.00;102791.25;2612492;36;20699;-55
2022/04/30 09:12:26;;;;;;;;;;;;;;;11.25;100.00;102794.50;2612950;36;20034;-51
2022/04/30 09:14:54;;;;;;;;;;;;;;;10.89;100.00;102794.88;2612441;36;20034;-52
2022/04/30 09:17:23;;;;;;;;;;;;;;;10.49;100.00;102793.53;2611103;36;19973;-52
2022/04/30 09:19:52;;;;;;;;;;;;;;;10.93;100.00;102793.72;2613561;36;19947;-54
2022/04/30 09:22:30;;;;;;;;;;;;;;;11.05;100.00;102790.28;2612497;36;19957;-54
2022/04/30 09:24:59;;;;;;;;;;;;;;;11.41;100.00;102789.03;2613391;36;19965;-58
2022/04/30 09:27:31;;;;;;;;;;;;;;;11.11;100.00;102787.22;2614025;36;20463;-53
2022/04/30 09:29:59;;;;;;;;;;;;;;;11.34;100.00;102790.38;2613496;36;19976;-57
2022/04/30 09:32:28;;;;;;;;;;;;;;;11.22;100.00;102787.47;2611962;36;20020;-50
2022/04/30 09:37:46;;;;;;;;;;;;;;;11.54;100.00;102786.44;2612831;31;20493;-49
2022/04/30 09:40:25;;;;;;;;;;;;;;;11.68;100.00;102772.97;2610868;36;20041;-52
2022/04/30 09:42:55;;;;;;;;;;;;;;;11.53;100.00;102773.94;2612439;36;19969;-53
2022/04/30 09:45:25;;;;;;;;;;;;;;;11.45;100.00;102777.09;2611387;36;19989;-56
2022/04/30 09:47:54;;;;;;;;;;;;;;;12.00;100.00;102777.31;2612903;36;19969;-51
2022/04/30 09:55:46;;;;;;;;;;;;;;;12.03;100.00;102777.13;2612044;36;19968;-50
2022/04/30 09:58:20;;;;;;;;;;;;;;;12.56;100.00;102778.16;2612716;36;19951;-52
2022/04/30 10:00:49;;;;;;;;;;;;;;;12.28;100.00;102773.72;2611912;31;19950;-49
2022/04/30 10:03:17;;;;;;;;;;;;;;;12.32;100.00;102771.66;2612566;36;20038;-57
2022/04/30 10:05:45;;;;;;;;;;;;;;;12.07;100.00;102768.72;2613079;36;20562;-54
2022/04/30 10:08:14;;;;;;;;;;;;;;;12.21;100.00;102775.06;2612356;36;19947;-55
2022/04/30 10:10:45;;;;;;;;;;;;;;;11.98;100.00;102758.50;2614083;36;20073;-54
2022/04/30 10:13:18;;;;;;;;;;;;;;;12.30;100.00;102752.00;2614192;31;19957;-51
2022/04/30 10:15:52;;;;;;;;;;;;;;;12.89;100.00;102743.56;2610686;36;20061;-51
2022/04/30 10:18:24;;;;;;;;;;;;;;;12.85;100.00;102747.44;2612318;31;20037;-50
2022/04/30 10:20:56;;;;;;;;;;;;;;;12.89;100.00;102741.69;2612925;36;19950;-54
2022/04/30 10:23:24;;;;;;;;;;;;;;;13.00;100.00;102738.28;2613086;36;20030;-52
2022/04/30 10:25:54;;;;;;;;;;;;;;;12.59;100.00;102742.81;2612216;31;20585;-50
2022/04/30 10:28:23;;;;;;;;;;;;;;;13.19;100.00;102745.97;2611719;36;19954;-54
2022/04/30 10:31:03;;;;;;;;;;;;;;;13.22;100.00;102743.06;2611368;31;20428;-53
2022/04/30 10:33:31;;;;;;;;;;;;;;;13.36;100.00;102738.56;2611525;36;20394;-55
2022/04/30 10:36:06;;;;;;;;;;;;;;;13.36;100.00;102734.00;2610997;36;20446;-51
2022/04/30 10:38:34;;;;;;;;;;;;;;;13.09;100.00;102725.97;2612397;31;20481;-50
2022/04/30 10:41:03;;;;;;;;;;;;;;;13.37;100.00;102724.03;2612200;36;20026;-55
2022/04/30 10:43:35;;;;;;;;;;;;;;;13.15;100.00;102733.66;2612304;31;19988;-53
2022/04/30 10:46:06;;;;;;;;;;;;;;;13.21;100.00;102722.41;2611801;31;19969;-51
2022/04/30 10:48:35;;;;;;;;;;;;;;;13.70;100.00;102728.03;2612011;36;19946;-50
2022/04/30 10:51:05;;;;;;;;;;;;;;;13.92;100.00;102722.78;2612092;36;20428;-53
2022/04/30 10:53:33;;;;;;;;;;;;;;;13.00;100.00;102713.06;2611720;36;20062;-51
2022/04/30 10:56:02;;;;;;;;;;;;;;;13.26;100.00;102716.66;2611926;36;19968;-52
2022/04/30 10:58:30;;;;;;;;;;;;;;;13.71;100.00;102716.25;2611444;36;19974;-50
2022/04/30 11:00:59;;;;;;;;;;;;;;;12.88;100.00;102709.38;2612172;36;19962;-56
2022/04/30 11:03:31;;;;;;;;;;;;;;;13.21;100.00;102708.88;2610912;36;20743;-53
2022/04/30 11:05:59;;;;;;;;;;;;;;;13.26;100.00;102708.53;2612547;36;19955;-51
2022/04/30 11:08:27;;;;;;;;;;;;;;;13.65;100.00;102704.00;2611858;36;20528;-48
2022/04/30 11:10:56;;;;;;;;;;;;;;;13.75;100.00;102709.59;2611787;36;20507;-59
2022/04/30 11:13:24;;;;;;;;;;;;;;;13.92;100.00;102705.69;2613199;36;20456;-53
2022/04/30 11:15:52;;;;;;;;;;;;;;;13.65;100.00;102704.88;2612516;36;19969;-50
2022/04/30 11:18:21;;;;;;;;;;;;;;;13.19;100.00;102702.72;2611443;36;19950;-56
2022/04/30 11:20:52;;;;;;;;;;;;;;;14.14;100.00;102705.81;2611812;36;19946;-55
2022/04/30 11:23:23;;;;;;;;;;;;;;;13.96;100.00;102697.22;2608626;36;19977;-59
2022/04/30 11:25:51;;;;;;;;;;;;;;;14.25;100.00;102688.78;2610781;36;19951;-52
2022/04/30 11:28:20;;;;;;;;;;;;;;;13.57;100.00;102696.44;2611976;36;19953;-55
2022/04/30 11:30:48;;;;;;;;;;;;;;;14.15;100.00;102690.44;2611669;36;19995;-54
2022/04/30 11:33:16;;;;;;;;;;;;;;;14.19;100.00;102691.91;2610367;36;20050;-52
2022/04/30 11:35:44;;;;;;;;;;;;;;;14.08;100.00;102695.44;2603207;31;20392;-60
2022/04/30 11:38:14;;;;;;;;;;;;;;;14.53;100.00;102689.34;2612554;36;20344;-50
2022/04/30 11:40:43;;;;;;;;;;;;;;;14.15;100.00;102687.72;2610889;36;19980;-57
2022/04/30 11:43:11;;;;;;;;;;;;;;;14.15;100.00;102695.84;2612267;36;20017;-56
2022/04/30 11:45:39;;;;;;;;;;;;;;;14.22;100.00;102686.25;2611150;36;19951;-50
2022/04/30 11:48:10;;;;;;;;;;;;;;;13.83;100.00;102685.56;2610521;31;20077;-58
2022/04/30 11:50:41;;;;;;;;;;;;;;;13.70;100.00;102691.00;2612329;36;20498;-50
2022/04/30 11:53:10;;;;;;;;;;;;;;;13.34;100.00;102684.56;2611754;36;19947;-51
2022/04/30 11:55:42;;;;;;;;;;;;;;;13.40;100.00;102691.38;2612424;31;20057;-49
2022/04/30 11:58:10;;;;;;;;;;;;;;;13.72;100.00;102688.19;2613836;36;20471;-58
2022/04/30 12:00:38;;;;;;;;;;;;;;;13.89;100.00;102689.66;2613672;31;20045;-59
2022/04/30 12:03:07;;;;;;;;;;;;;;;14.28;100.00;102682.22;2613991;31;19947;-49
2022/04/30 12:05:34;;;;;;;;;;;;;;;13.98;100.00;102679.00;2613628;36;19972;-52
2022/04/30 12:08:04;;;;;;;;;;;;;;;14.45;100.00;102680.97;2614191;31;20049;-52
2022/04/30 12:10:32;;;;;;;;;;;;;;;14.62;96.32;102677.00;2613578;36;20186;-56
2022/04/30 12:13:04;;;;;;;;;;;;;;;14.19;99.90;102664.84;2614131;36;20041;-62
2022/04/30 12:15:33;;;;;;;;;;;;;;;14.63;100.00;102670.59;2613625;31;19957;-50
2022/04/30 12:26:21;;;;;;;;;;;;;;;14.37;100.00;102666.16;2613981;36;19953;-57
2022/04/30 12:28:52;;;;;;;;;;;;;;;14.18;100.00;102663.13;2614056;36;19947;-54
2022/04/30 12:31:22;;;;;;;;;;;;;;;14.46;100.00;102666.47;2614024;36;19981;-55
2022/04/30 12:33:51;;;;;;;;;;;;;;;14.36;100.00;102659.00;2614097;36;19950;-50
2022/04/30 12:36:20;;;;;;;;;;;;;;;14.39;100.00;102657.06;2614230;36;20079;-49
2022/04/30 12:38:55;;;;;;;;;;;;;;;14.50;100.00;102655.25;2614311;36;20428;-55
2022/04/30 12:41:23;;;;;;;;;;;;;;;14.59;100.00;102652.81;2613838;36;19946;-53
2022/04/30 12:43:56;;;;;;;;;;;;;;;14.43;100.00;102653.13;2613798;36;19959;-54
2022/04/30 12:46:25;;;;;;;;;;;;;;;14.39;100.00;102648.94;2613603;36;19983;-52
2022/04/30 12:48:54;;;;;;;;;;;;;;;14.52;100.00;102641.59;2613515;36;20065;-59
2022/04/30 12:51:22;;;;;;;;;;;;;;;14.40;100.00;102639.81;2613647;36;19950;-50
2022/04/30 12:53:50;;;;;;;;;;;;;;;14.09;100.00;102650.25;2613891;36;19977;-52
2022/04/30 12:56:18;;;;;;;;;;;;;;;13.80;100.00;102639.78;2613695;36;20508;-57
2022/04/30 12:58:47;;;;;;;;;;;;;;;14.08;100.00;102632.31;2614284;36;20419;-53
2022/04/30 13:01:18;;;;;;;;;;;;;;;14.81;98.80;102633.06;2613968;36;20383;-64
2022/04/30 13:03:46;;;;;;;;;;;;;;;14.93;99.47;102634.81;2613635;36;19972;-55
2022/04/30 13:06:14;;;;;;;;;;;;;;;14.58;100.00;102627.56;2613931;31;20373;-52
2022/04/30 13:14:03;;;;;;;;;;;;;;;15.03;97.53;102622.25;2613754;36;19981;-50
2022/04/30 13:16:34;;;;;;;;;;;;;;;15.20;93.43;102622.75;2613564;31;19954;-49
2022/04/30 13:19:04;;;;;;;;;;;;;;;14.31;100.00;102612.47;2613401;36;19946;-55
2022/04/30 13:21:33;;;;;;;;;;;;;;;14.51;100.00;102615.47;2613507;31;19946;-61
2022/04/30 13:24:01;;;;;;;;;;;;;;;14.64;97.86;102618.13;2613538;36;20463;-52
2022/04/30 13:26:29;;;;;;;;;;;;;;;15.07;90.99;102618.31;2613701;36;19947;-54
2022/04/30 13:28:57;;;;;;;;;;;;;;;14.93;92.45;102613.13;2613571;36;20054;-51
2022/04/30 13:31:25;;;;;;;;;;;;;;;14.83;100.00;102610.28;2614447;36;20030;-56